Map

Track Data

SID SEASON NUMBER BASIN SUBBASIN NAME ISO_TIME NATURE LAT LON WMO_WIND WMO_PRES WMO_AGENCY TRACK_TYPE DIST2LAND LANDFALL IFLAG USA_AGENCY USA_ATCF_ID USA_LAT USA_LON USA_RECORD USA_STATUS USA_WIND USA_PRES USA_SSHS USA_R34_NE USA_R34_SE USA_R34_SW USA_R34_NW USA_R50_NE USA_R50_SE USA_R50_SW USA_R50_NW USA_R64_NE USA_R64_SE USA_R64_SW USA_R64_NW USA_POCI USA_ROCI USA_RMW USA_EYE TOKYO_LAT TOKYO_LON TOKYO_GRADE TOKYO_WIND TOKYO_PRES TOKYO_R50_DIR TOKYO_R50_LONG TOKYO_R50_SHORT TOKYO_R30_DIR TOKYO_R30_LONG TOKYO_R30_SHORT TOKYO_LAND CMA_LAT CMA_LON CMA_CAT CMA_WIND CMA_PRES HKO_LAT HKO_LON HKO_CAT HKO_WIND HKO_PRES NEWDELHI_LAT NEWDELHI_LON NEWDELHI_GRADE NEWDELHI_WIND NEWDELHI_PRES NEWDELHI_CI NEWDELHI_DP NEWDELHI_POCI REUNION_LAT REUNION_LON REUNION_TYPE REUNION_WIND REUNION_PRES REUNION_TNUM REUNION_CI REUNION_RMW REUNION_R34_NE REUNION_R34_SE REUNION_R34_SW REUNION_R34_NW REUNION_R50_NE REUNION_R50_SE REUNION_R50_SW REUNION_R50_NW REUNION_R64_NE REUNION_R64_SE REUNION_R64_SW REUNION_R64_NW BOM_LAT BOM_LON BOM_TYPE BOM_WIND BOM_PRES BOM_TNUM BOM_CI BOM_RMW BOM_R34_NE BOM_R34_SE BOM_R34_SW BOM_R34_NW BOM_R50_NE BOM_R50_SE BOM_R50_SW BOM_R50_NW BOM_R64_NE BOM_R64_SE BOM_R64_SW BOM_R64_NW BOM_ROCI BOM_POCI BOM_EYE BOM_POS_METHOD BOM_PRES_METHOD NADI_LAT NADI_LON NADI_CAT NADI_WIND NADI_PRES WELLINGTON_LAT WELLINGTON_LON WELLINGTON_WIND WELLINGTON_PRES DS824_LAT DS824_LON DS824_STAGE DS824_WIND DS824_PRES TD9636_LAT TD9636_LON TD9636_STAGE TD9636_WIND TD9636_PRES TD9635_LAT TD9635_LON TD9635_WIND TD9635_PRES TD9635_ROCI NEUMANN_LAT NEUMANN_LON NEUMANN_CLASS NEUMANN_WIND NEUMANN_PRES MLC_LAT MLC_LON MLC_CLASS MLC_WIND MLC_PRES USA_GUST BOM_GUST BOM_GUST_PER REUNION_GUST REUNION_GUST_PER USA_SEAHGT USA_SEARAD_NE USA_SEARAD_SE USA_SEARAD_SW USA_SEARAD_NW STORM_SPEED STORM_DIR
1923244N29287 1923 57 NA NA NOT_NAMED 1923-09-01 00:00:00 TS 29.4000 -73.0000 25 hurdat_atl main 676 671 O_____________ hurdat_atl AL021923 29.4000 -73.0000 TD 25 -1 8 67
1923244N29287 1923 57 NA NA NOT_NAMED 1923-09-01 03:00:00 TS 29.5503 -72.5903 main 676 676 P_____________ AL021923 29.5503 -72.5903 TD 25 -1 8 67
1923244N29287 1923 57 NA NA NOT_NAMED 1923-09-01 06:00:00 TS 29.7000 -72.2000 25 hurdat_atl main 688 684 O_____________ hurdat_atl AL021923 29.7000 -72.2000 TD 25 -1 7 65
1923244N29287 1923 57 NA NA NOT_NAMED 1923-09-01 09:00:00 TS 29.8498 -71.8424 main 702 693 P_____________ AL021923 29.8498 -71.8424 TD 25 -1 7 64
1923244N29287 1923 57 NA NA NOT_NAMED 1923-09-01 12:00:00 TS 30.0000 -71.5000 25 hurdat_atl main 703 700 O_____________ hurdat_atl AL021923 30.0000 -71.5000 TD 25 -1 7 64
1923244N29287 1923 57 NA NA NOT_NAMED 1923-09-01 15:00:00 TS 30.1500 -71.1424 main 720 712 P_____________ AL021923 30.1500 -71.1424 TD 25 -1 7 64
1923244N29287 1923 57 NA NA NOT_NAMED 1923-09-01 18:00:00 TS 30.3000 -70.8000 25 hurdat_atl main 724 723 O_____________ hurdat_atl AL021923 30.3000 -70.8000 TD 25 -1 7 62
1923244N29287 1923 57 NA NA NOT_NAMED 1923-09-01 21:00:00 TS 30.4575 -70.4775 main 730 730 P_____________ AL021923 30.4575 -70.4775 TD 27 -1 6 60
1923244N29287 1923 57 NA NA NOT_NAMED 1923-09-02 00:00:00 TS 30.6000 -70.2000 30 hurdat_atl main 744 743 O_____________ hurdat_atl AL021923 30.6000 -70.2000 TD 30 -1 5 60
1923244N29287 1923 57 NA NA NOT_NAMED 1923-09-02 03:00:00 TS 30.7074 -69.9774 main 751 751 P_____________ AL021923 30.7074 -69.9774 TD 30 -1 4 60
1923244N29287 1923 57 NA NA NOT_NAMED 1923-09-02 06:00:00 TS 30.8000 -69.8000 30 hurdat_atl main 758 758 O_____________ hurdat_atl AL021923 30.8000 -69.8000 TD 30 -1 4 57
1923244N29287 1923 57 NA NA NOT_NAMED 1923-09-02 09:00:00 TS 30.9000 -69.6275 main 767 767 P_____________ AL021923 30.9000 -69.6275 TD 30 -1 3 52
1923244N29287 1923 57 NA NA NOT_NAMED 1923-09-02 12:00:00 TS 31.0000 -69.5000 30 hurdat_atl main 767 761 O_____________ hurdat_atl AL021923 31.0000 -69.5000 TD 30 -1 3 39
1923244N29287 1923 57 NA NA NOT_NAMED 1923-09-02 15:00:00 TS 31.1075 -69.4275 main 769 762 P_____________ AL021923 31.1075 -69.4275 TD 30 -1 2 25
1923244N29287 1923 57 NA NA NOT_NAMED 1923-09-02 18:00:00 TS 31.2000 -69.4000 30 hurdat_atl main 762 754 O_____________ hurdat_atl AL021923 31.2000 -69.4000 TD 30 -1 2 6
1923244N29287 1923 57 NA NA NOT_NAMED 1923-09-02 21:00:00 TS 31.2650 -69.4000 main 754 754 P_____________ AL021923 31.2650 -69.4000 TD 30 -1 1 0
1923244N29287 1923 57 NA NA NOT_NAMED 1923-09-03 00:00:00 TS 31.3000 -69.4000 30 hurdat_atl main 754 754 O_____________ hurdat_atl AL021923 31.3000 -69.4000 TD 30 -1 0 0
1923244N29287 1923 57 NA NA NOT_NAMED 1923-09-03 03:00:00 TS 31.2925 -69.3724 main 754 754 P_____________ AL021923 31.2925 -69.3724 TD 30 -1 1 90
1923244N29287 1923 57 NA NA NOT_NAMED 1923-09-03 06:00:00 TS 31.3000 -69.3000 30 hurdat_atl main 761 761 O_____________ hurdat_atl AL021923 31.3000 -69.3000 TD 30 -1 2 63
1923244N29287 1923 57 NA NA NOT_NAMED 1923-09-03 09:00:00 TS 31.3698 -69.2023 main 761 760 P_____________ AL021923 31.3698 -69.2023 TD 30 -1 3 52
1923244N29287 1923 57 NA NA NOT_NAMED 1923-09-03 12:00:00 TS 31.5000 -69.0000 30 hurdat_atl main 768 768 O_____________ hurdat_atl AL021923 31.5000 -69.0000 TD 30 -1 6 57
1923244N29287 1923 57 NA NA NOT_NAMED 1923-09-03 15:00:00 TS 31.6775 -68.6524 main 775 775 P_____________ AL021923 31.6775 -68.6524 TD 32 -1 8 60
1923244N29287 1923 57 NA NA NOT_NAMED 1923-09-03 18:00:00 TS 31.9000 -68.2000 35 hurdat_atl main 800 800 O_____________ hurdat_atl AL021923 31.9000 -68.2000 TS 35 0 9 60
1923244N29287 1923 57 NA NA NOT_NAMED 1923-09-03 21:00:00 TS 32.1349 -67.7222 main 827 821 P_____________ AL021923 32.1349 -67.7222 TS 37 0 10 59
1923244N29287 1923 57 NA NA NOT_NAMED 1923-09-04 00:00:00 TS 32.4000 -67.2000 40 hurdat_atl main 851 851 O_____________ hurdat_atl AL021923 32.4000 -67.2000 TS 40 0 11 58
1923244N29287 1923 57 NA NA NOT_NAMED 1923-09-04 03:00:00 TS 32.6999 -66.6575 main 877 877 P_____________ AL021923 32.6999 -66.6575 TS 42 0 11 57
1923244N29287 1923 57 NA NA NOT_NAMED 1923-09-04 06:00:00 TS 33.0000 -66.1000 45 hurdat_atl main 914 914 O_____________ hurdat_atl AL021923 33.0000 -66.1000 TS 45 0 11 59
1923244N29287 1923 57 NA NA NOT_NAMED 1923-09-04 09:00:00 TS 33.2572 -65.5570 main 946 946 P_____________ AL021923 33.2572 -65.5570 TS 47 0 10 61
1923244N29287 1923 57 NA NA NOT_NAMED 1923-09-04 12:00:00 TS 33.5000 -65.0000 50 hurdat_atl main 991 991 O_____________ hurdat_atl AL021923 33.5000 -65.0000 TS 50 0 11 62
1923244N29287 1923 57 NA NA NOT_NAMED 1923-09-04 15:00:00 TS 33.7570 -64.4297 main 1006 1005 P_____________ AL021923 33.7570 -64.4297 TS 52 0 11 63
1923244N29287 1923 57 NA NA NOT_NAMED 1923-09-04 18:00:00 TS 34.0000 -63.8000 55 hurdat_atl main 1014 1014 O_____________ hurdat_atl AL021923 34.0000 -63.8000 TS 55 0 12 68
1923244N29287 1923 57 NA NA NOT_NAMED 1923-09-04 21:00:00 TS 34.2077 -63.0572 main 1029 1029 P_____________ AL021923 34.2077 -63.0572 TS 57 0 13 72
1923244N29287 1923 57 NA NA NOT_NAMED 1923-09-05 00:00:00 TS 34.4000 -62.3000 60 hurdat_atl main 1045 1035 O_____________ hurdat_atl AL021923 34.4000 -62.3000 TS 60 0 13 72
1923244N29287 1923 57 NA NA NOT_NAMED 1923-09-05 03:00:00 TS 34.5997 -61.6123 main 1040 1033 P_____________ AL021923 34.5997 -61.6123 TS 62 0 11 70
1923244N29287 1923 57 NA NA NOT_NAMED 1923-09-05 06:00:00 TS 34.8000 -61.0000 65 hurdat_atl main 1036 1028 O_____________ hurdat_atl AL021923 34.8000 -61.0000 HU 65 1 10 67
1923244N29287 1923 57 NA NA NOT_NAMED 1923-09-05 09:00:00 TS 34.9997 -60.4622 main 1031 1025 P_____________ AL021923 34.9997 -60.4622 HU 67 1 9 64
1923244N29287 1923 57 NA NA NOT_NAMED 1923-09-05 12:00:00 TS 35.2000 -60.0000 70 hurdat_atl main 1029 1020 O_____________ hurdat_atl AL021923 35.2000 -60.0000 HU 70 1 8 61
1923244N29287 1923 57 NA NA NOT_NAMED 1923-09-05 15:00:00 TS 35.4073 -59.5699 main 1024 1017 P_____________ AL021923 35.4073 -59.5699 HU 72 1 8 58
1923244N29287 1923 57 NA NA NOT_NAMED 1923-09-05 18:00:00 TS 35.6000 -59.2000 75 hurdat_atl main 1021 1016 O_____________ hurdat_atl AL021923 35.6000 -59.2000 HU 75 1 7 58
1923244N29287 1923 57 NA NA NOT_NAMED 1923-09-05 21:00:00 TS 35.7574 -58.8698 main 1015 1015 P_____________ AL021923 35.7574 -58.8698 HU 77 1 6 58
1923244N29287 1923 57 NA NA NOT_NAMED 1923-09-06 00:00:00 TS 35.9000 -58.6000 80 hurdat_atl main 1020 1015 O_____________ hurdat_atl AL021923 35.9000 -58.6000 HU 80 1 5 54
1923244N29287 1923 57 NA NA NOT_NAMED 1923-09-06 03:00:00 TS 36.0499 -58.3699 main 1020 1010 P_____________ AL021923 36.0499 -58.3699 HU 80 1 4 47
1923244N29287 1923 57 NA NA NOT_NAMED 1923-09-06 06:00:00 TS 36.2000 -58.2000 80 hurdat_atl main 1011 1002 O_____________ hurdat_atl AL021923 36.2000 -58.2000 HU 80 1 4 38
1923244N29287 1923 57 NA NA NOT_NAMED 1923-09-06 09:00:00 TS 36.3575 -58.0774 main 998 994 P_____________ AL021923 36.3575 -58.0774 HU 82 1 3 28
1923244N29287 1923 57 NA NA NOT_NAMED 1923-09-06 12:00:00 TS 36.5000 -58.0000 85 hurdat_atl main 994 985 O_____________ hurdat_atl AL021923 36.5000 -58.0000 HU 85 2 3 24
1923244N29287 1923 57 NA NA NOT_NAMED 1923-09-06 15:00:00 TS 36.6075 -57.9350 main 990 980 P_____________ AL021923 36.6075 -57.9350 HU 85 2 2 23
1923244N29287 1923 57 NA NA NOT_NAMED 1923-09-06 18:00:00 TS 36.7000 -57.9000 85 hurdat_atl main 980 969 O_____________ hurdat_atl AL021923 36.7000 -57.9000 HU 85 2 2 13
1923244N29287 1923 57 NA NA NOT_NAMED 1923-09-06 21:00:00 TS 36.8075 -57.8850 main 969 959 P_____________ AL021923 36.8075 -57.8850 HU 85 2 2 8
1923244N29287 1923 57 NA NA NOT_NAMED 1923-09-07 00:00:00 TS 36.9000 -57.9000 85 hurdat_atl main 959 949 O_____________ hurdat_atl AL021923 36.9000 -57.9000 HU 85 2 2 341
1923244N29287 1923 57 NA NA NOT_NAMED 1923-09-07 03:00:00 TS 36.9575 -57.9500 main 949 945 P_____________ AL021923 36.9575 -57.9500 HU 87 2 1 323
1923244N29287 1923 57 NA NA NOT_NAMED 1923-09-07 06:00:00 TS 37.0000 -58.0000 90 hurdat_atl main 945 935 O_____________ hurdat_atl AL021923 37.0000 -58.0000 HU 90 2 1 343
1923244N29287 1923 57 NA NA NOT_NAMED 1923-09-07 09:00:00 TS 37.0575 -58.0075 main 935 935 P_____________ AL021923 37.0575 -58.0075 HU 90 2 1 0
1923244N29287 1923 57 NA NA NOT_NAMED 1923-09-07 12:00:00 TS 37.1000 -58.0000 90 hurdat_atl main 935 935 O_____________ hurdat_atl AL021923 37.1000 -58.0000 HU 90 2 1 27
1923244N29287 1923 57 NA NA NOT_NAMED 1923-09-07 15:00:00 TS 37.1075 -57.9925 main 935 935 P_____________ AL021923 37.1075 -57.9925 HU 87 2 0 0
1923244N29287 1923 57 NA NA NOT_NAMED 1923-09-07 18:00:00 TS 37.1000 -58.0000 85 hurdat_atl main 935 935 O_____________ hurdat_atl AL021923 37.1000 -58.0000 HU 85 2 0 248
1923244N29287 1923 57 NA NA NOT_NAMED 1923-09-07 21:00:00 TS 37.0925 -58.0350 main 935 932 P_____________ AL021923 37.0925 -58.0350 HU 85 2 1 270
1923244N29287 1923 57 NA NA NOT_NAMED 1923-09-08 00:00:00 TS 37.1000 -58.1000 85 hurdat_atl main 932 928 O_____________ hurdat_atl AL021923 37.1000 -58.1000 HU 85 2 1 285
1923244N29287 1923 57 NA NA NOT_NAMED 1923-09-08 03:00:00 TS 37.1275 -58.1925 main 928 915 P_____________ AL021923 37.1275 -58.1925 HU 82 1 2 303
1923244N29287 1923 57 NA NA NOT_NAMED 1923-09-08 06:00:00 TS 37.2000 -58.3000 80 hurdat_atl main 915 901 O_____________ hurdat_atl AL021923 37.2000 -58.3000 HU 80 1 3 319
1923244N29287 1923 57 NA NA NOT_NAMED 1923-09-08 09:00:00 TS 37.3200 -58.4000 main 901 877 P_____________ AL021923 37.3200 -58.4000 HU 80 1 3 333
1923244N29287 1923 57 NA NA NOT_NAMED 1923-09-08 12:00:00 TS 37.5000 -58.5000 80 hurdat_atl main 877 853 O_____________ hurdat_atl AL021923 37.5000 -58.5000 HU 80 1 4 339
1923244N29287 1923 57 NA NA NOT_NAMED 1923-09-08 15:00:00 TS 37.7200 -58.6001 main 853 819 P_____________ AL021923 37.7200 -58.6001 HU 77 1 5 342
1923244N29287 1923 57 NA NA NOT_NAMED 1923-09-08 18:00:00 TS 38.0000 -58.7000 75 hurdat_atl main 819 785 O_____________ hurdat_atl AL021923 38.0000 -58.7000 HU 75 1 6 345
1923244N29287 1923 57 NA NA NOT_NAMED 1923-09-08 21:00:00 TS 38.3275 -58.8074 main 785 740 P_____________ AL021923 38.3275 -58.8074 HU 75 1 7 347
1923244N29287 1923 57 NA NA NOT_NAMED 1923-09-09 00:00:00 TS 38.7000 -58.9000 75 hurdat_atl main 740 696 O_____________ hurdat_atl AL021923 38.7000 -58.9000 HU 75 1 8 350
1923244N29287 1923 57 NA NA NOT_NAMED 1923-09-09 03:00:00 TS 39.0775 -58.9797 main 696 655 P_____________ AL021923 39.0775 -58.9797 HU 72 1 8 354
1923244N29287 1923 57 NA NA NOT_NAMED 1923-09-09 06:00:00 TS 39.5000 -59.0000 70 hurdat_atl main 655 613 O_____________ hurdat_atl AL021923 39.5000 -59.0000 HU 70 1 9 0
1923244N29287 1923 57 NA NA NOT_NAMED 1923-09-09 09:00:00 TS 39.9624 -58.9519 main 603 554 P_____________ AL021923 39.9624 -58.9519 HU 70 1 10 9
1923244N29287 1923 57 NA NA NOT_NAMED 1923-09-09 12:00:00 TS 40.5000 -58.8000 70 hurdat_atl main 554 498 O_____________ hurdat_atl AL021923 40.5000 -58.8000 HU 70 1 12 16
1923244N29287 1923 57 NA NA NOT_NAMED 1923-09-09 15:00:00 TS 41.0976 -58.5372 main 501 444 P_____________ AL021923 41.0976 -58.5372 HU 67 1 14 19
1923244N29287 1923 57 NA NA NOT_NAMED 1923-09-09 18:00:00 TS 41.8000 -58.2000 65 hurdat_atl main 444 385 O_____________ hurdat_atl AL021923 41.8000 -58.2000 HU 65 1 16 18
1923244N29287 1923 57 NA NA NOT_NAMED 1923-09-09 21:00:00 TS 42.6048 -57.8785 main 385 335 P_____________ AL021923 42.6048 -57.8785 HU 60 0 18 17
1923244N29287 1923 57 NA NA NOT_NAMED 1923-09-10 00:00:00 ET 43.5000 -57.5000 55 hurdat_atl main 326 281 O_____________ hurdat_atl AL021923 43.5000 -57.5000 EX 55 -4 19 18
1923244N29287 1923 57 NA NA NOT_NAMED 1923-09-10 03:00:00 ET 44.4195 -57.0573 main 281 177 P_____________ AL021923 44.4195 -57.0573 EX 50 -4 20 21
1923244N29287 1923 57 NA NA NOT_NAMED 1923-09-10 06:00:00 ET 45.4000 -56.5000 45 hurdat_atl main 167 45 O_____________ hurdat_atl AL021923 45.4000 -56.5000 EX 45 -4 22 24
1923244N29287 1923 57 NA NA NOT_NAMED 1923-09-10 09:00:00 ET 46.4363 -55.7999 main 45 0 P_____________ AL021923 46.4363 -55.7999 EX 42 -4 23 26
1923244N29287 1923 57 NA NA NOT_NAMED 1923-09-10 12:00:00 ET 47.5000 -55.0000 40 hurdat_atl main 0 O_____________ hurdat_atl AL021923 47.5000 -55.0000 EX 40 -4 24 27

About IBTrACS Database

This database is a web-friendly format of International Best Track Archive for Climate Stewardship (IBTrACS), a global best track data archive curated by NOAA dating back to 1842.

Updated: 2021-10-21